Terminal Aerodrome Forecast
Issued by NWS

Home | Current Version | Previous Version | Text Only | Print | Product List | Glossary On
Versions: 1 2 3 4 5 6 7 8 9 10 11 12 13 14 15 16 17 18
000
FTUS41 KCAR 272300
TAFBHB
TAF
KBHB 272335Z 2800/2824 16005KT P6SM VCSH OVC007
      TEMPO 2800/2803 5SM -SHRA BR
     FM280400 17007KT 1SM BR BKN003
     FM280700 17007KT 1/2SM FG OVC002
     FM281400 15010KT 3SM -RA BR OVC002
     FM281800 15013KT 3SM -RA BR OVC005
      AMD LTD TO CLD VIS AND WIND=

USA.gov is the U.S. government's official web portal to all federal, state and local government web resources and services.